sensor_id;sensor_type;location;lat;lon;timestamp;pressure;altitude;pressure_sealevel;temperature;humidity
57628;BME280;43451;49.060;10.616;2023-06-05T00:02:00;96817.19;;;12.99;66.02
57628;BME280;43451;49.060;10.616;2023-06-05T00:04:26;96818.09;;;12.89;66.05
57628;BME280;43451;49.060;10.616;2023-06-05T00:06:53;96818.22;;;12.75;66.57
57628;BME280;43451;49.060;10.616;2023-06-05T00:09:18;96817.75;;;12.84;65.72
57628;BME280;43451;49.060;10.616;2023-06-05T00:11:44;96815.84;;;12.77;66.15
57628;BME280;43451;49.060;10.616;2023-06-05T00:14:10;96815.03;;;12.80;66.50
57628;BME280;43451;49.060;10.616;2023-06-05T00:16:35;96815.50;;;12.75;66.78
57628;BME280;43451;49.060;10.616;2023-06-05T00:19:01;96817.47;;;12.71;66.20
57628;BME280;43451;49.060;10.616;2023-06-05T00:21:27;96815.13;;;12.73;66.71
57628;BME280;43451;49.060;10.616;2023-06-05T00:23:53;96817.03;;;12.76;65.83
57628;BME280;43451;49.060;10.616;2023-06-05T00:26:19;96812.81;;;12.68;66.11
57628;BME280;43451;49.060;10.616;2023-06-05T00:28:44;96811.75;;;12.54;66.85
57628;BME280;43451;49.060;10.616;2023-06-05T00:31:10;96815.59;;;12.61;66.69
57628;BME280;43451;49.060;10.616;2023-06-05T00:33:38;96816.34;;;12.65;66.74
57628;BME280;43451;49.060;10.616;2023-06-05T00:36:03;96809.00;;;12.58;67.19
57628;BME280;43451;49.060;10.616;2023-06-05T00:38:29;96807.88;;;12.52;68.03
57628;BME280;43451;49.060;10.616;2023-06-05T00:40:54;96812.25;;;12.42;68.32
57628;BME280;43451;49.060;10.616;2023-06-05T00:43:20;96802.56;;;12.38;69.31
57628;BME280;43451;49.060;10.616;2023-06-05T00:45:45;96804.94;;;12.32;70.01
57628;BME280;43451;49.060;10.616;2023-06-05T00:48:11;96809.66;;;12.21;70.85
57628;BME280;43451;49.060;10.616;2023-06-05T00:50:37;96809.81;;;12.03;72.94
57628;BME280;43451;49.060;10.616;2023-06-05T00:53:04;96806.31;;;11.95;73.70
57628;BME280;43451;49.060;10.616;2023-06-05T00:55:31;96813.34;;;11.96;73.87
57628;BME280;43451;49.060;10.616;2023-06-05T00:57:57;96819.16;;;11.98;73.16
57628;BME280;43451;49.060;10.616;2023-06-05T01:00:22;96816.09;;;11.82;73.01
57628;BME280;43451;49.060;10.616;2023-06-05T01:02:49;96821.16;;;11.91;72.64
57628;BME280;43451;49.060;10.616;2023-06-05T01:05:19;96818.44;;;11.87;73.20
57628;BME280;43451;49.060;10.616;2023-06-05T01:07:45;96821.53;;;11.89;72.98
57628;BME280;43451;49.060;10.616;2023-06-05T01:10:13;96813.00;;;11.80;74.18
57628;BME280;43451;49.060;10.616;2023-06-05T01:15:29;96814.63;;;11.67;77.47
57628;BME280;43451;49.060;10.616;2023-06-05T01:17:56;96809.59;;;11.54;78.86
57628;BME280;43451;49.060;10.616;2023-06-05T01:20:22;96818.91;;;11.68;77.90
57628;BME280;43451;49.060;10.616;2023-06-05T01:22:49;96808.09;;;11.50;80.19
57628;BME280;43451;49.060;10.616;2023-06-05T01:25:17;96816.66;;;11.41;80.55
57628;BME280;43451;49.060;10.616;2023-06-05T01:30:35;96800.03;;;11.21;81.90
57628;BME280;43451;49.060;10.616;2023-06-05T01:33:10;96808.97;;;11.22;82.23
57628;BME280;43451;49.060;10.616;2023-06-05T01:35:38;96817.53;;;11.17;81.49
57628;BME280;43451;49.060;10.616;2023-06-05T01:38:06;96808.59;;;11.20;80.72
57628;BME280;43451;49.060;10.616;2023-06-05T01:40:35;96808.13;;;11.32;79.56
57628;BME280;43451;49.060;10.616;2023-06-05T01:43:02;96804.66;;;11.28;79.73
57628;BME280;43451;49.060;10.616;2023-06-05T01:45:30;96812.03;;;11.31;79.52
57628;BME280;43451;49.060;10.616;2023-06-05T01:47:56;96813.59;;;11.32;80.60
57628;BME280;43451;49.060;10.616;2023-06-05T01:50:22;96810.84;;;11.43;80.31
57628;BME280;43451;49.060;10.616;2023-06-05T01:52:47;96807.31;;;11.49;80.41
57628;BME280;43451;49.060;10.616;2023-06-05T01:55:20;96815.91;;;11.37;80.67
57628;BME280;43451;49.060;10.616;2023-06-05T01:57:49;96813.59;;;11.39;81.86
57628;BME280;43451;49.060;10.616;2023-06-05T02:00:16;96807.34;;;11.42;81.47
57628;BME280;43451;49.060;10.616;2023-06-05T02:02:43;96814.72;;;11.45;80.75
57628;BME280;43451;49.060;10.616;2023-06-05T02:05:11;96815.13;;;11.40;80.66
57628;BME280;43451;49.060;10.616;2023-06-05T02:07:44;96815.88;;;11.51;80.68
57628;BME280;43451;49.060;10.616;2023-06-05T02:10:15;96813.97;;;11.37;81.42
57628;BME280;43451;49.060;10.616;2023-06-05T02:12:41;96804.28;;;11.33;83.27
57628;BME280;43451;49.060;10.616;2023-06-05T02:15:08;96815.94;;;11.30;82.13
57628;BME280;43451;49.060;10.616;2023-06-05T02:17:38;96809.72;;;11.33;83.87
57628;BME280;43451;49.060;10.616;2023-06-05T02:20:04;96808.50;;;11.37;83.40
57628;BME280;43451;49.060;10.616;2023-06-05T02:22:30;96809.72;;;11.33;82.55
57628;BME280;43451;49.060;10.616;2023-06-05T02:24:55;96805.78;;;11.41;81.49
57628;BME280;43451;49.060;10.616;2023-06-05T02:27:21;96801.94;;;11.28;84.10
57628;BME280;43451;49.060;10.616;2023-06-05T02:29:49;96801.97;;;11.21;83.04
57628;BME280;43451;49.060;10.616;2023-06-05T02:32:15;96802.00;;;11.17;83.47
57628;BME280;43451;49.060;10.616;2023-06-05T02:34:41;96798.84;;;11.29;81.74
57628;BME280;43451;49.060;10.616;2023-06-05T02:37:06;96791.88;;;11.21;82.59
57628;BME280;43451;49.060;10.616;2023-06-05T02:39:33;96793.47;;;11.08;83.66
57628;BME280;43451;49.060;10.616;2023-06-05T02:41:59;96797.78;;;10.95;84.89
57628;BME280;43451;49.060;10.616;2023-06-05T02:44:24;96808.25;;;10.96;84.93
57628;BME280;43451;49.060;10.616;2023-06-05T02:46:50;96805.94;;;10.91;84.25
57628;BME280;43451;49.060;10.616;2023-06-05T02:49:15;96804.34;;;10.97;84.70
57628;BME280;43451;49.060;10.616;2023-06-05T02:51:40;96802.00;;;11.13;84.41
57628;BME280;43451;49.060;10.616;2023-06-05T02:54:06;96808.56;;;11.16;82.47
57628;BME280;43451;49.060;10.616;2023-06-05T02:56:32;96804.31;;;11.19;82.95
57628;BME280;43451;49.060;10.616;2023-06-05T02:58:58;96799.28;;;11.13;82.55
57628;BME280;43451;49.060;10.616;2023-06-05T03:01:23;96796.91;;;11.19;83.19
57628;BME280;43451;49.060;10.616;2023-06-05T03:03:51;96796.56;;;11.13;81.84
57628;BME280;43451;49.060;10.616;2023-06-05T03:06:17;96799.69;;;11.08;82.28
57628;BME280;43451;49.060;10.616;2023-06-05T03:08:44;96801.25;;;11.02;83.49
57628;BME280;43451;49.060;10.616;2023-06-05T03:11:10;96809.00;;;11.00;84.49
57628;BME280;43451;49.060;10.616;2023-06-05T03:13:35;96804.78;;;10.88;85.69
57628;BME280;43451;49.060;10.616;2023-06-05T03:16:01;96800.91;;;10.72;87.70
57628;BME280;43451;49.060;10.616;2023-06-05T03:18:28;96796.66;;;10.63;88.81
57628;BME280;43451;49.060;10.616;2023-06-05T03:20:53;96802.84;;;10.71;89.97
57628;BME280;43451;49.060;10.616;2023-06-05T03:23:26;96794.31;;;10.62;91.57
57628;BME280;43451;49.060;10.616;2023-06-05T03:25:56;96799.75;;;10.58;90.98
57628;BME280;43451;49.060;10.616;2023-06-05T03:28:23;96798.22;;;10.54;91.63
57628;BME280;43451;49.060;10.616;2023-06-05T03:30:49;96797.41;;;10.50;90.33
57628;BME280;43451;49.060;10.616;2023-06-05T03:33:15;96808.69;;;10.48;92.32
57628;BME280;43451;49.060;10.616;2023-06-05T03:35:42;96803.66;;;10.50;93.81
57628;BME280;43451;49.060;10.616;2023-06-05T03:38:09;96793.94;;;10.42;95.55
57628;BME280;43451;49.060;10.616;2023-06-05T03:40:35;96802.09;;;10.45;95.57
57628;BME280;43451;49.060;10.616;2023-06-05T03:43:01;96795.88;;;10.49;94.44
57628;BME280;43451;49.060;10.616;2023-06-05T03:45:26;96795.88;;;10.59;93.96
57628;BME280;43451;49.060;10.616;2023-06-05T03:47:53;96797.03;;;10.33;94.95
57628;BME280;43451;49.060;10.616;2023-06-05T03:50:20;96794.31;;;10.30;94.96
57628;BME280;43451;49.060;10.616;2023-06-05T03:52:46;96798.56;;;10.27;95.54
57628;BME280;43451;49.060;10.616;2023-06-05T03:55:20;96805.56;;;10.25;95.99
57628;BME280;43451;49.060;10.616;2023-06-05T03:57:47;96805.16;;;10.22;96.86
57628;BME280;43451;49.060;10.616;2023-06-05T04:00:13;96799.72;;;10.15;96.82
57628;BME280;43451;49.060;10.616;2023-06-05T04:02:42;96818.34;;;10.20;97.80
57628;BME280;43451;49.060;10.616;2023-06-05T04:05:08;96810.63;;;10.30;98.58
57628;BME280;43451;49.060;10.616;2023-06-05T04:07:38;96813.72;;;10.39;98.29
57628;BME280;43451;49.060;10.616;2023-06-05T04:10:04;96818.78;;;10.44;97.67
57628;BME280;43451;49.060;10.616;2023-06-05T04:12:30;96819.53;;;10.52;97.21
57628;BME280;43451;49.060;10.616;2023-06-05T04:14:55;96820.72;;;10.54;98.19
57628;BME280;43451;49.060;10.616;2023-06-05T04:17:21;96815.28;;;10.61;97.79
57628;BME280;43451;49.060;10.616;2023-06-05T04:19:47;96820.31;;;10.66;96.78
57628;BME280;43451;49.060;10.616;2023-06-05T04:22:12;96823.03;;;10.70;96.70
57628;BME280;43451;49.060;10.616;2023-06-05T04:24:38;96830.03;;;10.82;96.33
57628;BME280;43451;49.060;10.616;2023-06-05T04:27:04;96821.88;;;10.85;95.93
57628;BME280;43451;49.060;10.616;2023-06-05T04:29:30;96819.53;;;10.91;95.22
57628;BME280;43451;49.060;10.616;2023-06-05T04:31:57;96818.34;;;10.96;94.54
57628;BME280;43451;49.060;10.616;2023-06-05T04:34:23;96819.13;;;10.96;95.40
57628;BME280;43451;49.060;10.616;2023-06-05T04:36:49;96812.16;;;10.91;96.17
57628;BME280;43451;49.060;10.616;2023-06-05T04:39:17;96819.91;;;10.93;95.64
57628;BME280;43451;49.060;10.616;2023-06-05T04:41:44;96816.78;;;10.98;96.60
57628;BME280;43451;49.060;10.616;2023-06-05T04:44:15;96820.28;;;11.02;96.86
57628;BME280;43451;49.060;10.616;2023-06-05T04:46:47;96808.97;;;11.18;97.01
57628;BME280;43451;49.060;10.616;2023-06-05T04:49:14;96805.47;;;11.21;96.55
57628;BME280;43451;49.060;10.616;2023-06-05T04:51:40;96811.66;;;11.36;95.65
57628;BME280;43451;49.060;10.616;2023-06-05T04:54:06;96809.66;;;11.44;95.87
57628;BME280;43451;49.060;10.616;2023-06-05T04:56:35;96816.66;;;11.48;94.73
57628;BME280;43451;49.060;10.616;2023-06-05T04:59:01;96817.00;;;11.61;94.26
57628;BME280;43451;49.060;10.616;2023-06-05T05:01:28;96818.47;;;11.73;93.75
57628;BME280;43451;49.060;10.616;2023-06-05T05:03:54;96821.94;;;11.84;94.55
57628;BME280;43451;49.060;10.616;2023-06-05T05:06:20;96821.13;;;11.94;92.82
57628;BME280;43451;49.060;10.616;2023-06-05T05:08:47;96812.09;;;12.12;89.86
57628;BME280;43451;49.060;10.616;2023-06-05T05:11:17;96820.19;;;12.22;89.69
57628;BME280;43451;49.060;10.616;2023-06-05T05:13:43;96823.16;;;12.39;88.43
57628;BME280;43451;49.060;10.616;2023-06-05T05:16:09;96821.94;;;12.50;82.23
57628;BME280;43451;49.060;10.616;2023-06-05T05:18:38;96814.78;;;12.67;83.41
57628;BME280;43451;49.060;10.616;2023-06-05T05:21:06;96826.56;;;12.98;81.74
57628;BME280;43451;49.060;10.616;2023-06-05T05:23:32;96818.69;;;13.08;81.39
57628;BME280;43451;49.060;10.616;2023-06-05T05:25:59;96820.22;;;13.09;83.15
57628;BME280;43451;49.060;10.616;2023-06-05T05:28:25;96830.13;;;13.33;80.68
57628;BME280;43451;49.060;10.616;2023-06-05T05:30:51;96826.88;;;13.45;79.29
57628;BME280;43451;49.060;10.616;2023-06-05T05:33:18;96825.97;;;13.56;79.48
57628;BME280;43451;49.060;10.616;2023-06-05T05:35:47;96826.00;;;13.86;76.72
57628;BME280;43451;49.060;10.616;2023-06-05T05:38:12;96821.03;;;14.08;78.64
57628;BME280;43451;49.060;10.616;2023-06-05T05:40:38;96822.13;;;14.65;71.47
57628;BME280;43451;49.060;10.616;2023-06-05T05:43:03;96815.69;;;15.22;66.65
57628;BME280;43451;49.060;10.616;2023-06-05T05:45:29;96824.13;;;15.71;58.14
57628;BME280;43451;49.060;10.616;2023-06-05T05:47:54;96819.63;;;16.17;55.28
57628;BME280;43451;49.060;10.616;2023-06-05T05:50:20;96817.44;;;16.45;51.85
57628;BME280;43451;49.060;10.616;2023-06-05T05:52:46;96818.28;;;16.58;51.18
57628;BME280;43451;49.060;10.616;2023-06-05T05:55:13;96823.63;;;16.65;49.55
57628;BME280;43451;49.060;10.616;2023-06-05T05:57:38;96824.91;;;16.77;49.89
57628;BME280;43451;49.060;10.616;2023-06-05T06:00:05;96819.41;;;16.93;48.98
57628;BME280;43451;49.060;10.616;2023-06-05T06:02:35;96826.25;;;17.18;50.39
57628;BME280;43451;49.060;10.616;2023-06-05T06:05:02;96819.22;;;17.17;48.32
57628;BME280;43451;49.060;10.616;2023-06-05T06:07:28;96809.41;;;17.32;48.16
57628;BME280;43451;49.060;10.616;2023-06-05T06:09:54;96814.63;;;17.56;48.51
57628;BME280;43451;49.060;10.616;2023-06-05T06:12:19;96820.22;;;17.94;48.78
57628;BME280;43451;49.060;10.616;2023-06-05T06:14:45;96812.06;;;17.78;47.73
57628;BME280;43451;49.060;10.616;2023-06-05T06:17:14;96808.56;;;17.90;48.52
57628;BME280;43451;49.060;10.616;2023-06-05T06:19:40;96808.13;;;18.04;47.77
57628;BME280;43451;49.060;10.616;2023-06-05T06:22:07;96813.31;;;18.02;50.19
57628;BME280;43451;49.060;10.616;2023-06-05T06:24:41;96811.97;;;17.94;49.17
57628;BME280;43451;49.060;10.616;2023-06-05T06:27:10;96809.81;;;18.15;48.95
57628;BME280;43451;49.060;10.616;2023-06-05T06:29:58;96810.25;;;18.13;50.90
57628;BME280;43451;49.060;10.616;2023-06-05T06:32:24;96814.75;;;18.20;51.44
57628;BME280;43451;49.060;10.616;2023-06-05T06:34:51;96813.63;;;18.04;50.89
57628;BME280;43451;49.060;10.616;2023-06-05T06:37:17;96819.69;;;17.86;51.74
57628;BME280;43451;49.060;10.616;2023-06-05T06:39:45;96816.50;;;18.01;51.50
57628;BME280;43451;49.060;10.616;2023-06-05T06:42:11;96819.47;;;17.94;50.34
57628;BME280;43451;49.060;10.616;2023-06-05T06:44:38;96812.91;;;17.75;53.32
57628;BME280;43451;49.060;10.616;2023-06-05T06:47:04;96817.72;;;18.00;52.19
57628;BME280;43451;49.060;10.616;2023-06-05T06:49:30;96823.19;;;17.87;52.00
57628;BME280;43451;49.060;10.616;2023-06-05T06:51:56;96815.16;;;17.80;53.13
57628;BME280;43451;49.060;10.616;2023-06-05T06:54:22;96818.13;;;17.85;52.58
57628;BME280;43451;49.060;10.616;2023-06-05T06:56:48;96817.16;;;17.79;52.19
57628;BME280;43451;49.060;10.616;2023-06-05T06:59:19;96822.75;;;17.59;53.58
57628;BME280;43451;49.060;10.616;2023-06-05T07:02:08;96819.50;;;17.64;53.72
57628;BME280;43451;49.060;10.616;2023-06-05T07:04:34;96823.78;;;17.66;53.85
57628;BME280;43451;49.060;10.616;2023-06-05T07:06:59;96816.03;;;17.77;54.62
57628;BME280;43451;49.060;10.616;2023-06-05T07:09:25;96812.44;;;17.93;54.35
57628;BME280;43451;49.060;10.616;2023-06-05T07:11:51;96812.22;;;18.00;54.19
57628;BME280;43451;49.060;10.616;2023-06-05T07:14:17;96812.09;;;18.03;55.29
57628;BME280;43451;49.060;10.616;2023-06-05T07:16:42;96806.19;;;18.18;56.05
57628;BME280;43451;49.060;10.616;2023-06-05T07:19:08;96809.38;;;18.29;56.39
57628;BME280;43451;49.060;10.616;2023-06-05T07:21:34;96807.94;;;18.37;54.81
57628;BME280;43451;49.060;10.616;2023-06-05T07:24:03;96806.19;;;18.43;56.92
57628;BME280;43451;49.060;10.616;2023-06-05T07:26:30;96802.41;;;18.63;56.71
57628;BME280;43451;49.060;10.616;2023-06-05T07:28:55;96799.34;;;18.73;54.67
57628;BME280;43451;49.060;10.616;2023-06-05T07:31:21;96800.19;;;18.83;53.90
57628;BME280;43451;49.060;10.616;2023-06-05T07:33:47;96799.06;;;18.93;53.89
57628;BME280;43451;49.060;10.616;2023-06-05T07:36:13;96789.84;;;18.87;53.54
57628;BME280;43451;49.060;10.616;2023-06-05T07:38:39;96800.13;;;19.09;55.37
57628;BME280;43451;49.060;10.616;2023-06-05T07:41:08;96794.84;;;19.01;55.03
57628;BME280;43451;49.060;10.616;2023-06-05T07:43:37;96797.91;;;19.16;55.75
57628;BME280;43451;49.060;10.616;2023-06-05T07:46:05;96796.28;;;19.28;54.78
57628;BME280;43451;49.060;10.616;2023-06-05T07:48:30;96790.84;;;19.37;55.05
57628;BME280;43451;49.060;10.616;2023-06-05T07:50:56;96795.25;;;19.47;56.39
57628;BME280;43451;49.060;10.616;2023-06-05T07:53:22;96787.59;;;19.52;54.49
57628;BME280;43451;49.060;10.616;2023-06-05T07:55:48;96792.72;;;19.62;55.03
57628;BME280;43451;49.060;10.616;2023-06-05T07:58:14;96792.84;;;19.81;55.22
57628;BME280;43451;49.060;10.616;2023-06-05T08:00:41;96801.03;;;19.93;53.93
57628;BME280;43451;49.060;10.616;2023-06-05T08:03:14;96790.63;;;19.98;53.52
57628;BME280;43451;49.060;10.616;2023-06-05T08:05:49;96792.63;;;19.97;53.04
57628;BME280;43451;49.060;10.616;2023-06-05T08:08:15;96794.63;;;19.97;52.60
57628;BME280;43451;49.060;10.616;2023-06-05T08:10:41;96782.84;;;19.96;51.77
57628;BME280;43451;49.060;10.616;2023-06-05T08:13:10;96782.69;;;20.00;52.60
57628;BME280;43451;49.060;10.616;2023-06-05T08:15:35;96786.47;;;20.24;52.62
57628;BME280;43451;49.060;10.616;2023-06-05T08:18:01;96782.34;;;20.29;51.67
57628;BME280;43451;49.060;10.616;2023-06-05T08:20:27;96780.88;;;20.46;51.68
57628;BME280;43451;49.060;10.616;2023-06-05T08:22:54;96791.38;;;20.60;50.57
57628;BME280;43451;49.060;10.616;2023-06-05T08:25:23;96790.78;;;20.66;50.44
57628;BME280;43451;49.060;10.616;2023-06-05T08:27:49;96785.44;;;20.71;50.73
57628;BME280;43451;49.060;10.616;2023-06-05T08:30:16;96778.66;;;20.72;50.10
57628;BME280;43451;49.060;10.616;2023-06-05T08:32:42;96777.78;;;20.84;49.47
57628;BME280;43451;49.060;10.616;2023-06-05T08:35:08;96783.44;;;20.72;50.13
57628;BME280;43451;49.060;10.616;2023-06-05T08:37:34;96779.31;;;20.85;50.97
57628;BME280;43451;49.060;10.616;2023-06-05T08:39:59;96784.66;;;20.89;49.54
57628;BME280;43451;49.060;10.616;2023-06-05T08:42:31;96779.78;;;20.93;50.92
57628;BME280;43451;49.060;10.616;2023-06-05T08:44:56;96773.47;;;20.93;50.14
57628;BME280;43451;49.060;10.616;2023-06-05T08:47:22;96778.69;;;20.91;49.79
57628;BME280;43451;49.060;10.616;2023-06-05T08:49:54;96770.13;;;21.07;51.67
57628;BME280;43451;49.060;10.616;2023-06-05T08:52:22;96779.94;;;21.17;49.02
57628;BME280;43451;49.060;10.616;2023-06-05T08:54:49;96773.66;;;21.26;49.49
57628;BME280;43451;49.060;10.616;2023-06-05T08:57:15;96774.72;;;21.28;48.88
57628;BME280;43451;49.060;10.616;2023-06-05T08:59:42;96768.56;;;21.33;49.88
57628;BME280;43451;49.060;10.616;2023-06-05T09:02:11;96765.38;;;21.44;50.29
57628;BME280;43451;49.060;10.616;2023-06-05T09:04:38;96763.66;;;21.47;49.18
57628;BME280;43451;49.060;10.616;2023-06-05T09:07:04;96764.56;;;21.62;48.98
57628;BME280;43451;49.060;10.616;2023-06-05T09:09:31;96759.19;;;21.68;49.71
57628;BME280;43451;49.060;10.616;2023-06-05T09:12:09;96762.19;;;21.88;48.33
57628;BME280;43451;49.060;10.616;2023-06-05T09:14:35;96775.06;;;22.00;47.62
57628;BME280;43451;49.060;10.616;2023-06-05T09:17:02;96765.72;;;21.98;45.04
57628;BME280;43451;49.060;10.616;2023-06-05T09:19:46;96766.66;;;21.95;45.55
57628;BME280;43451;49.060;10.616;2023-06-05T09:22:12;96769.84;;;22.02;45.28
57628;BME280;43451;49.060;10.616;2023-06-05T09:24:40;96768.00;;;21.99;44.33
57628;BME280;43451;49.060;10.616;2023-06-05T09:27:10;96770.47;;;21.88;42.82
57628;BME280;43451;49.060;10.616;2023-06-05T09:29:38;96761.16;;;21.76;43.20
57628;BME280;43451;49.060;10.616;2023-06-05T09:32:04;96760.50;;;21.91;44.60
57628;BME280;43451;49.060;10.616;2023-06-05T09:34:38;96758.47;;;22.00;43.45
57628;BME280;43451;49.060;10.616;2023-06-05T09:37:09;96765.66;;;22.07;43.67
57628;BME280;43451;49.060;10.616;2023-06-05T09:39:40;96760.13;;;22.16;42.69
57628;BME280;43451;49.060;10.616;2023-06-05T09:42:08;96761.91;;;22.29;43.70
57628;BME280;43451;49.060;10.616;2023-06-05T09:44:35;96757.31;;;22.25;41.28
57628;BME280;43451;49.060;10.616;2023-06-05T09:47:02;96751.19;;;22.21;42.01
57628;BME280;43451;49.060;10.616;2023-06-05T09:52:09;96753.19;;;22.21;41.93
57628;BME280;43451;49.060;10.616;2023-06-05T09:54:41;96752.38;;;22.30;42.88
57628;BME280;43451;49.060;10.616;2023-06-05T09:57:08;96744.63;;;22.43;43.24
57628;BME280;43451;49.060;10.616;2023-06-05T09:59:43;96753.50;;;22.47;42.55
57628;BME280;43451;49.060;10.616;2023-06-05T10:02:11;96747.94;;;22.56;40.45
57628;BME280;43451;49.060;10.616;2023-06-05T10:05:02;96746.72;;;22.48;41.31
57628;BME280;43451;49.060;10.616;2023-06-05T10:07:32;96736.81;;;22.32;42.13
57628;BME280;43451;49.060;10.616;2023-06-05T10:09:58;96736.00;;;22.41;42.85
57628;BME280;43451;49.060;10.616;2023-06-05T10:12:24;96738.31;;;22.66;42.32
57628;BME280;43451;49.060;10.616;2023-06-05T10:14:54;96733.03;;;22.78;41.84
57628;BME280;43451;49.060;10.616;2023-06-05T10:17:21;96733.84;;;22.69;41.55
57628;BME280;43451;49.060;10.616;2023-06-05T10:19:47;96731.25;;;22.65;41.71
57628;BME280;43451;49.060;10.616;2023-06-05T10:22:13;96727.66;;;22.74;42.13
57628;BME280;43451;49.060;10.616;2023-06-05T10:24:44;96732.91;;;22.72;41.73
57628;BME280;43451;49.060;10.616;2023-06-05T10:27:16;96723.53;;;22.69;42.54
57628;BME280;43451;49.060;10.616;2023-06-05T10:35:30;96722.41;;;22.76;42.04
57628;BME280;43451;49.060;10.616;2023-06-05T10:38:15;96720.94;;;22.66;41.41
57628;BME280;43451;49.060;10.616;2023-06-05T10:40:53;96723.88;;;22.62;42.21
57628;BME280;43451;49.060;10.616;2023-06-05T10:43:47;96718.22;;;22.57;41.47
57628;BME280;43451;49.060;10.616;2023-06-05T10:46:36;96722.81;;;22.84;41.03
57628;BME280;43451;49.060;10.616;2023-06-05T10:54:14;96713.25;;;22.85;41.83
57628;BME280;43451;49.060;10.616;2023-06-05T10:59:39;96723.47;;;22.79;41.88
57628;BME280;43451;49.060;10.616;2023-06-05T11:07:24;96705.47;;;22.98;42.50
57628;BME280;43451;49.060;10.616;2023-06-05T11:15:06;96712.00;;;23.25;40.44
57628;BME280;43451;49.060;10.616;2023-06-05T11:17:38;96700.44;;;23.11;41.12
57628;BME280;43451;49.060;10.616;2023-06-05T11:20:08;96693.63;;;22.98;43.73
57628;BME280;43451;49.060;10.616;2023-06-05T11:27:57;96696.72;;;23.00;41.18
57628;BME280;43451;49.060;10.616;2023-06-05T11:30:45;96695.34;;;22.95;40.50
57628;BME280;43451;49.060;10.616;2023-06-05T11:33:12;96685.06;;;22.86;41.33
57628;BME280;43451;49.060;10.616;2023-06-05T11:35:47;96696.81;;;22.81;40.99
57628;BME280;43451;49.060;10.616;2023-06-05T11:38:20;96690.97;;;23.03;39.54
57628;BME280;43451;49.060;10.616;2023-06-05T11:40:47;96677.59;;;23.16;40.37
57628;BME280;43451;49.060;10.616;2023-06-05T11:43:14;96675.69;;;23.23;42.11
57628;BME280;43451;49.060;10.616;2023-06-05T11:45:43;96678.53;;;22.99;42.12
57628;BME280;43451;49.060;10.616;2023-06-05T11:48:14;96681.63;;;23.15;42.42
57628;BME280;43451;49.060;10.616;2023-06-05T11:50:58;96674.25;;;23.12;42.89
57628;BME280;43451;49.060;10.616;2023-06-05T11:53:25;96678.00;;;23.09;42.80
57628;BME280;43451;49.060;10.616;2023-06-05T11:55:52;96675.66;;;22.93;43.29
57628;BME280;43451;49.060;10.616;2023-06-05T12:00:47;96667.09;;;23.06;43.00
57628;BME280;43451;49.060;10.616;2023-06-05T12:03:20;96679.72;;;23.22;43.38
57628;BME280;43451;49.060;10.616;2023-06-05T12:05:47;96677.03;;;23.57;44.44
57628;BME280;43451;49.060;10.616;2023-06-05T12:08:27;96676.66;;;23.64;42.10
57628;BME280;43451;49.060;10.616;2023-06-05T12:10:54;96670.16;;;23.52;41.94
57628;BME280;43451;49.060;10.616;2023-06-05T12:13:51;96664.72;;;23.73;42.36
57628;BME280;43451;49.060;10.616;2023-06-05T12:16:17;96663.16;;;23.72;39.84
57628;BME280;43451;49.060;10.616;2023-06-05T12:18:44;96667.44;;;23.88;40.00
57628;BME280;43451;49.060;10.616;2023-06-05T12:21:21;96667.94;;;23.86;41.05
57628;BME280;43451;49.060;10.616;2023-06-05T12:23:48;96661.69;;;23.91;42.07
57628;BME280;43451;49.060;10.616;2023-06-05T12:26:14;96653.00;;;24.19;42.39
57628;BME280;43451;49.060;10.616;2023-06-05T12:28:41;96654.44;;;24.49;43.09
57628;BME280;43451;49.060;10.616;2023-06-05T12:31:08;96653.59;;;24.64;42.96
57628;BME280;43451;49.060;10.616;2023-06-05T12:33:45;96652.31;;;24.85;42.14
57628;BME280;43451;49.060;10.616;2023-06-05T12:36:11;96651.72;;;24.75;40.42
57628;BME280;43451;49.060;10.616;2023-06-05T12:38:38;96637.06;;;25.01;41.12
57628;BME280;43451;49.060;10.616;2023-06-05T12:41:04;96645.91;;;24.99;40.81
57628;BME280;43451;49.060;10.616;2023-06-05T12:43:33;96639.25;;;24.91;41.25
57628;BME280;43451;49.060;10.616;2023-06-05T12:45:59;96639.25;;;24.91;41.01
57628;BME280;43451;49.060;10.616;2023-06-05T12:48:26;96626.88;;;24.92;40.76
57628;BME280;43451;49.060;10.616;2023-06-05T12:50:51;96635.34;;;25.04;40.07
57628;BME280;43451;49.060;10.616;2023-06-05T12:53:18;96628.63;;;24.90;39.04
57628;BME280;43451;49.060;10.616;2023-06-05T12:55:45;96632.13;;;24.64;38.62
57628;BME280;43451;49.060;10.616;2023-06-05T12:58:10;96620.97;;;24.59;39.54
57628;BME280;43451;49.060;10.616;2023-06-05T13:00:36;96618.72;;;24.63;38.92
57628;BME280;43451;49.060;10.616;2023-06-05T13:03:01;96615.88;;;24.57;38.41
57628;BME280;43451;49.060;10.616;2023-06-05T13:05:29;96618.31;;;24.70;39.01
57628;BME280;43451;49.060;10.616;2023-06-05T13:07:55;96614.44;;;24.41;40.36
57628;BME280;43451;49.060;10.616;2023-06-05T13:10:21;96612.13;;;24.40;39.93
57628;BME280;43451;49.060;10.616;2023-06-05T13:12:46;96616.13;;;24.39;40.77
57628;BME280;43451;49.060;10.616;2023-06-05T13:15:12;96609.69;;;24.27;40.49
57628;BME280;43451;49.060;10.616;2023-06-05T13:17:37;96616.09;;;24.33;38.98
57628;BME280;43451;49.060;10.616;2023-06-05T13:20:07;96613.09;;;24.37;38.78
57628;BME280;43451;49.060;10.616;2023-06-05T13:22:42;96614.53;;;24.32;39.41
57628;BME280;43451;49.060;10.616;2023-06-05T13:25:08;96607.59;;;24.22;39.82
57628;BME280;43451;49.060;10.616;2023-06-05T13:27:34;96604.19;;;24.32;39.29
57628;BME280;43451;49.060;10.616;2023-06-05T13:30:00;96603.72;;;24.54;39.04
57628;BME280;43451;49.060;10.616;2023-06-05T13:32:26;96600.75;;;24.58;39.54
57628;BME280;43451;49.060;10.616;2023-06-05T13:34:52;96598.97;;;24.81;39.03